createdAt,value
2018-12-30T00:00:49.394Z,101873.03
2018-12-30T00:03:19.426Z,101878.78
2018-12-30T00:05:49.671Z,101874.70
2018-12-30T00:08:19.896Z,101880.39
2018-12-30T00:10:49.756Z,101881.80
2018-12-30T00:13:19.613Z,101876.11
2018-12-30T00:15:49.425Z,101882.09
2018-12-30T00:18:19.325Z,101883.45
2018-12-30T00:20:49.089Z,101883.64
2018-12-30T00:23:19.227Z,101885.47
2018-12-30T00:25:49.063Z,101883.82
2018-12-30T00:28:18.931Z,101884.19
2018-12-30T00:30:48.813Z,101886.22
2018-12-30T00:33:18.531Z,101884.08
2018-12-30T00:35:48.727Z,101885.42
2018-12-30T00:38:18.806Z,101887.55
2018-12-30T00:40:48.760Z,101885.27
2018-12-30T00:43:18.627Z,101885.69
2018-12-30T00:45:48.749Z,101884.35
2018-12-30T00:48:19.238Z,101881.61
2018-12-30T00:50:49.103Z,101907.56
2018-12-30T00:53:18.868Z,101901.00
2018-12-30T00:55:48.772Z,101891.16
2018-12-30T00:58:18.509Z,101882.65
2018-12-30T01:00:48.324Z,101888.30
2018-12-30T01:03:18.204Z,101891.83
2018-12-30T01:05:47.938Z,101888.30
2018-12-30T01:08:17.841Z,101874.64
2018-12-30T01:10:47.591Z,101883.64
2018-12-30T01:13:17.406Z,101898.94
2018-12-30T01:15:47.159Z,101890.37
2018-12-30T01:18:17.037Z,101882.28
2018-12-30T01:20:46.975Z,101890.86
2018-12-30T01:23:16.909Z,101875.14
2018-12-30T01:25:47.007Z,101875.08
2018-12-30T01:28:16.815Z,101877.27
2018-12-30T01:30:46.772Z,101876.05
2018-12-30T01:33:16.525Z,101874.29
2018-12-30T01:35:46.336Z,101874.34
2018-12-30T01:38:16.095Z,101874.78
2018-12-30T01:40:45.895Z,101869.52
2018-12-30T01:43:15.680Z,101871.34
2018-12-30T01:45:45.667Z,101865.72
2018-12-30T01:48:15.311Z,101866.52
2018-12-30T01:50:45.290Z,101872.87
2018-12-30T01:53:14.956Z,101864.73
2018-12-30T01:55:44.750Z,101857.08
2018-12-30T01:58:14.621Z,101856.95
2018-12-30T02:00:44.389Z,101854.97
2018-12-30T02:03:14.208Z,101854.55
2018-12-30T02:05:44.055Z,101851.32
2018-12-30T02:08:13.927Z,101845.70
2018-12-30T02:10:43.963Z,101843.11
2018-12-30T02:13:13.714Z,101847.19
2018-12-30T02:15:43.584Z,101839.70
2018-12-30T02:18:13.277Z,101845.56
2018-12-30T02:20:43.044Z,101840.14
2018-12-30T02:23:12.832Z,101841.91
2018-12-30T02:25:42.887Z,101838.56
2018-12-30T02:28:13.056Z,101836.28
2018-12-30T02:30:42.970Z,101830.59
2018-12-30T02:33:13.327Z,101833.37
2018-12-30T02:35:43.204Z,101834.56
2018-12-30T02:38:13.352Z,101834.52
2018-12-30T02:40:43.059Z,101819.50
2018-12-30T02:43:12.879Z,101828.98
2018-12-30T02:45:42.690Z,101815.94
2018-12-30T02:48:12.629Z,101818.55
2018-12-30T02:50:42.730Z,101823.56
2018-12-30T02:53:12.674Z,101820.83
2018-12-30T02:55:42.784Z,101813.92
2018-12-30T02:58:12.784Z,101817.12
2018-12-30T03:00:42.543Z,101822.68
2018-12-30T03:03:12.298Z,101820.89
2018-12-30T03:05:42.213Z,101828.61
2018-12-30T03:08:12.198Z,101826.03
2018-12-30T03:10:42.156Z,101832.33
2018-12-30T03:13:12.191Z,101834.28
2018-12-30T03:15:42.365Z,101837.79
2018-12-30T03:18:12.235Z,101833.89
2018-12-30T03:20:42.028Z,101836.53
2018-12-30T03:23:12.080Z,101838.58
2018-12-30T03:25:41.771Z,101836.13
2018-12-30T03:28:11.668Z,101825.91
2018-12-30T03:30:43.093Z,101830.88
2018-12-30T03:33:13.063Z,101832.63
2018-12-30T03:35:42.763Z,101825.27
2018-12-30T03:38:12.555Z,101823.42
2018-12-30T03:40:42.406Z,101820.20
2018-12-30T03:43:12.713Z,101823.99
2018-12-30T03:45:42.579Z,101830.08
2018-12-30T03:48:12.552Z,101819.70
2018-12-30T03:50:42.274Z,101820.51
2018-12-30T03:53:12.119Z,101828.80
2018-12-30T03:55:42.197Z,101825.34
2018-12-30T03:58:12.458Z,101827.92
2018-12-30T04:00:43.677Z,101838.69
2018-12-30T04:03:13.688Z,101839.41
2018-12-30T04:05:43.605Z,101841.20
2018-12-30T04:08:13.459Z,101851.77
2018-12-30T04:10:43.235Z,101849.92
2018-12-30T04:13:13.058Z,101857.89
2018-12-30T04:15:42.901Z,101856.11
2018-12-30T04:18:12.826Z,101857.04
2018-12-30T04:20:42.472Z,101853.13
2018-12-30T04:23:12.290Z,101857.55
2018-12-30T04:25:42.157Z,101862.57
2018-12-30T04:28:11.935Z,101870.28
2018-12-30T04:30:41.827Z,101870.25
2018-12-30T04:33:11.700Z,101873.97
2018-12-30T04:35:41.455Z,101869.05
2018-12-30T04:38:11.364Z,101872.80
2018-12-30T04:40:41.392Z,101876.11
2018-12-30T04:43:11.202Z,101879.56
2018-12-30T04:45:41.946Z,101879.98
2018-12-30T04:48:11.914Z,101874.63
2018-12-30T04:50:41.869Z,101883.39
2018-12-30T04:53:11.813Z,101875.46
2018-12-30T04:55:41.661Z,101876.33
2018-12-30T04:58:11.452Z,101871.59
2018-12-30T05:00:41.147Z,101875.31
2018-12-30T05:03:11.009Z,101873.59
2018-12-30T05:05:40.979Z,101878.30
2018-12-30T05:08:10.694Z,101873.61
2018-12-30T05:10:40.527Z,101879.52
2018-12-30T05:13:10.403Z,101878.69
2018-12-30T05:15:40.036Z,101885.61
2018-12-30T05:18:09.775Z,101895.81
2018-12-30T05:20:39.561Z,101894.11
2018-12-30T05:23:09.503Z,101889.03
2018-12-30T05:25:39.281Z,101889.62
2018-12-30T05:28:09.166Z,101893.25
2018-12-30T05:30:38.974Z,101893.50
2018-12-30T05:33:08.920Z,101890.43
2018-12-30T05:35:38.650Z,101892.45
2018-12-30T05:38:08.490Z,101896.27
2018-12-30T05:40:38.265Z,101888.95
2018-12-30T05:43:08.172Z,101894.02
2018-12-30T05:45:38.036Z,101900.45
2018-12-30T05:48:07.755Z,101904.69
2018-12-30T05:50:37.485Z,101905.94
2018-12-30T05:53:07.209Z,101906.72
2018-12-30T05:55:36.966Z,101900.67
2018-12-30T05:58:06.991Z,101902.80
2018-12-30T06:00:36.849Z,101909.25
2018-12-30T06:03:06.550Z,101913.09
2018-12-30T06:05:36.434Z,101904.19
2018-12-30T06:08:06.474Z,101907.17
2018-12-30T06:10:36.402Z,101913.66
2018-12-30T06:13:06.179Z,101908.19
2018-12-30T06:15:35.997Z,101921.27
2018-12-30T06:18:07.256Z,101920.92
2018-12-30T06:20:37.366Z,101917.42
2018-12-30T06:23:07.269Z,101922.61
2018-12-30T06:25:37.218Z,101927.55
2018-12-30T06:28:07.216Z,101925.06
2018-12-30T06:30:37.023Z,101930.83
2018-12-30T06:33:06.901Z,101930.84
2018-12-30T06:35:38.010Z,101934.56
2018-12-30T06:38:07.770Z,101935.19
2018-12-30T06:40:38.982Z,101936.64
2018-12-30T06:43:09.165Z,101927.05
2018-12-30T06:45:39.083Z,101929.92
2018-12-30T06:48:10.127Z,101927.05
2018-12-30T06:50:40.039Z,101925.83
2018-12-30T06:53:10.030Z,101922.39
2018-12-30T06:55:41.101Z,101924.31
2018-12-30T06:58:11.113Z,101925.60
2018-12-30T07:00:41.054Z,101923.06
2018-12-30T07:03:11.016Z,101928.92
2018-12-30T07:05:40.651Z,101924.92
2018-12-30T07:08:10.260Z,101927.05
2018-12-30T07:10:40.221Z,101926.47
2018-12-30T07:13:10.155Z,101926.05
2018-12-30T07:15:40.046Z,101931.88
2018-12-30T07:18:09.981Z,101927.03
2018-12-30T07:20:39.715Z,101924.63
2018-12-30T07:23:09.584Z,101927.17
2018-12-30T07:25:39.417Z,101930.69
2018-12-30T07:28:09.211Z,101925.90
2018-12-30T07:30:39.047Z,101928.72
2018-12-30T07:33:09.297Z,101930.48
2018-12-30T07:35:39.101Z,101928.94
2018-12-30T07:38:08.892Z,101930.17
2018-12-30T07:40:38.777Z,101930.17
2018-12-30T07:43:08.751Z,101929.09
2018-12-30T07:45:38.644Z,101930.38
2018-12-30T07:48:08.468Z,101928.45
2018-12-30T07:50:38.297Z,101934.10
2018-12-30T07:53:13.738Z,101931.89
2018-12-30T07:55:39.430Z,101934.88
2018-12-30T07:58:10.716Z,101931.89
2018-12-30T08:00:40.501Z,101935.23
2018-12-30T08:03:10.289Z,101930.70
2018-12-30T08:05:40.265Z,101932.77
2018-12-30T08:08:10.121Z,101935.43
2018-12-30T08:10:40.055Z,101943.26
2018-12-30T08:13:09.915Z,101935.48
2018-12-30T08:15:39.680Z,101935.53
2018-12-30T08:18:09.380Z,101935.49
2018-12-30T08:20:40.552Z,101931.97
2018-12-30T08:23:10.437Z,101935.91
2018-12-30T08:25:40.085Z,101928.68
2018-12-30T08:28:09.746Z,101927.92
2018-12-30T08:30:39.692Z,101932.84
2018-12-30T08:33:09.521Z,101926.47
2018-12-30T08:35:39.357Z,101918.49
2018-12-30T08:38:09.178Z,101918.24
2018-12-30T08:40:40.305Z,101924.48
2018-12-30T08:43:10.142Z,101924.27
2018-12-30T08:45:40.126Z,101926.39
2018-12-30T08:48:11.291Z,101920.89
2018-12-30T08:50:41.180Z,101926.90
2018-12-30T08:53:12.337Z,101924.19
2018-12-30T08:55:42.142Z,101920.91
2018-12-30T08:58:11.851Z,101903.73
2018-12-30T09:00:41.652Z,101903.84
2018-12-30T09:03:11.465Z,101900.74
2018-12-30T09:05:41.173Z,101897.76
2018-12-30T09:08:12.158Z,101901.70
2018-12-30T09:10:42.029Z,101892.13
2018-12-30T09:13:11.908Z,101894.76
2018-12-30T09:15:41.683Z,101890.78
2018-12-30T09:18:11.518Z,101891.04
2018-12-30T09:20:41.374Z,101899.62
2018-12-30T09:23:11.124Z,101888.26
2018-12-30T09:25:40.940Z,101889.40
2018-12-30T09:28:10.783Z,101882.97
2018-12-30T09:30:40.572Z,101884.55
2018-12-30T09:33:10.356Z,101875.68
2018-12-30T09:35:40.230Z,101877.37
2018-12-30T09:38:10.414Z,101870.23
2018-12-30T09:40:40.411Z,101865.32
2018-12-30T09:43:10.351Z,101864.37
2018-12-30T09:45:40.269Z,101858.47
2018-12-30T09:48:12.860Z,101857.51
2018-12-30T09:50:42.662Z,101859.46
2018-12-30T09:53:13.831Z,101858.44
2018-12-30T09:55:43.705Z,101857.67
2018-12-30T09:58:13.419Z,101853.20
2018-12-30T10:00:44.553Z,101854.94
2018-12-30T10:03:14.272Z,101853.47
2018-12-30T10:05:44.313Z,101846.17
2018-12-30T10:08:14.539Z,101851.17
2018-12-30T10:10:44.471Z,101851.75
2018-12-30T10:13:15.326Z,101845.15
2018-12-30T10:15:45.151Z,101847.55
2018-12-30T10:18:14.943Z,101844.80
2018-12-30T10:20:44.834Z,101840.36
2018-12-30T10:23:14.689Z,101836.09
2018-12-30T10:25:44.501Z,101831.70
2018-12-30T10:28:14.361Z,101836.75
2018-12-30T10:30:44.832Z,101831.90
2018-12-30T10:33:15.034Z,101829.32
2018-12-30T10:35:44.833Z,101828.14
2018-12-30T10:38:14.860Z,101823.33
2018-12-30T10:40:44.690Z,101822.71
2018-12-30T10:43:14.493Z,101822.80
2018-12-30T10:45:44.439Z,101815.56
2018-12-30T10:48:14.213Z,101818.47
2018-12-30T10:50:43.920Z,101817.45
2018-12-30T10:53:13.890Z,101813.77
2018-12-30T10:55:43.755Z,101820.33
2018-12-30T10:58:13.660Z,101821.31
2018-12-30T11:00:43.590Z,101820.33
2018-12-30T11:03:13.415Z,101810.92
2018-12-30T11:05:43.326Z,101804.95
2018-12-30T11:08:13.250Z,101814.66
2018-12-30T11:10:42.955Z,101817.52
2018-12-30T11:13:12.985Z,101816.10
2018-12-30T11:15:42.957Z,101812.07
2018-12-30T11:18:12.906Z,101814.90
2018-12-30T11:20:42.842Z,101816.62
2018-12-30T11:23:12.537Z,101817.69
2018-12-30T11:25:42.592Z,101814.93
2018-12-30T11:28:12.628Z,101821.40
2018-12-30T11:30:43.654Z,101818.42
2018-12-30T11:33:13.514Z,101817.95
2018-12-30T11:35:43.496Z,101808.28
2018-12-30T11:38:13.199Z,101816.14
2018-12-30T11:40:43.478Z,101816.38
2018-12-30T11:43:13.340Z,101812.98
2018-12-30T11:45:43.064Z,101824.25
2018-12-30T11:48:12.824Z,101826.58
2018-12-30T11:50:42.881Z,101827.69
2018-12-30T11:53:12.879Z,101823.14
2018-12-30T11:55:42.796Z,101826.37
2018-12-30T11:58:12.718Z,101824.03
2018-12-30T12:00:42.888Z,101828.12
2018-12-30T12:03:12.672Z,101830.14
2018-12-30T12:05:43.824Z,101828.55
2018-12-30T12:08:13.615Z,101832.08
2018-12-30T12:10:43.616Z,101804.11
2018-12-30T12:13:13.309Z,101823.45
2018-12-30T12:15:43.087Z,101828.14
2018-12-30T12:18:12.913Z,101830.69
2018-12-30T12:20:42.888Z,101825.80
2018-12-30T12:23:12.701Z,101828.38
2018-12-30T12:25:42.574Z,101831.03
2018-12-30T12:28:14.116Z,101830.77
2018-12-30T12:30:45.401Z,101828.51
2018-12-30T12:33:15.203Z,101830.42
2018-12-30T12:35:44.923Z,101830.55
2018-12-30T12:38:16.090Z,101828.41
2018-12-30T12:40:45.952Z,101824.08
2018-12-30T12:43:15.712Z,101823.48
2018-12-30T12:45:45.596Z,101826.90
2018-12-30T12:48:15.328Z,101825.98
2018-12-30T12:50:45.304Z,101822.80
2018-12-30T12:53:15.103Z,101824.66
2018-12-30T12:55:44.821Z,101819.96
2018-12-30T12:58:15.927Z,101826.72
2018-12-30T13:00:45.849Z,101822.09
2018-12-30T13:03:15.782Z,101828.20
2018-12-30T13:05:45.539Z,101822.51
2018-12-30T13:08:15.190Z,101818.78
2018-12-30T13:10:45.105Z,101819.23
2018-12-30T13:13:14.780Z,101825.17
2018-12-30T13:15:45.941Z,101823.80
2018-12-30T13:18:15.701Z,101821.94
2018-12-30T13:20:45.584Z,101819.20
2018-12-30T13:23:15.287Z,101816.51
2018-12-30T13:25:47.574Z,101822.97
2018-12-30T13:28:17.391Z,101826.40
2018-12-30T13:30:47.100Z,101824.06
2018-12-30T13:33:18.078Z,101831.06
2018-12-30T13:35:47.861Z,101830.77
2018-12-30T13:38:17.808Z,101831.00
2018-12-30T13:40:48.737Z,101827.05
2018-12-30T13:43:19.265Z,101826.37
2018-12-30T13:45:49.157Z,101824.13
2018-12-30T13:48:19.077Z,101831.98
2018-12-30T13:50:48.890Z,101824.58
2018-12-30T13:53:19.028Z,101823.11
2018-12-30T13:55:48.873Z,101823.58
2018-12-30T13:58:18.728Z,101824.22
2018-12-30T14:00:48.544Z,101821.42
2018-12-30T14:03:18.306Z,101822.05
2018-12-30T14:05:49.196Z,101820.44
2018-12-30T14:08:19.066Z,101825.66
2018-12-30T14:10:49.044Z,101819.87
2018-12-30T14:13:18.844Z,101824.35
2018-12-30T14:15:51.090Z,101825.58
2018-12-30T14:18:20.206Z,101823.09
2018-12-30T14:20:50.035Z,101825.27
2018-12-30T14:23:19.957Z,101821.39
2018-12-30T14:25:49.827Z,101823.81
2018-12-30T14:28:19.507Z,101827.95
2018-12-30T14:30:49.189Z,101823.98
2018-12-30T14:33:18.937Z,101822.70
2018-12-30T14:35:48.704Z,101824.45
2018-12-30T14:38:18.643Z,101828.09
2018-12-30T14:40:48.573Z,101827.63
2018-12-30T14:43:18.441Z,101836.80
2018-12-30T14:45:48.300Z,101828.19
2018-12-30T14:48:18.199Z,101833.34
2018-12-30T14:50:49.289Z,101830.41
2018-12-30T14:53:19.515Z,101827.19
2018-12-30T14:55:49.426Z,101827.84
2018-12-30T14:58:19.513Z,101821.30
2018-12-30T15:00:49.465Z,101824.73
2018-12-30T15:03:19.497Z,101833.43
2018-12-30T15:05:49.251Z,101830.58
2018-12-30T15:08:19.204Z,101836.97
2018-12-30T15:10:48.913Z,101835.27
2018-12-30T15:13:18.586Z,101844.38
2018-12-30T15:15:48.390Z,101839.48
2018-12-30T15:18:19.564Z,101839.66
2018-12-30T15:20:49.577Z,101840.56
2018-12-30T15:23:19.407Z,101839.77
2018-12-30T15:25:49.354Z,101844.05
2018-12-30T15:28:19.323Z,101842.68
2018-12-30T15:30:49.132Z,101844.91
2018-12-30T15:33:19.244Z,101851.34
2018-12-30T15:35:49.078Z,101850.25
2018-12-30T15:38:18.927Z,101845.56
2018-12-30T15:40:48.696Z,101851.07
2018-12-30T15:43:18.498Z,101855.66
2018-12-30T15:45:49.803Z,101855.08
2018-12-30T15:48:19.586Z,101853.76
2018-12-30T15:50:49.488Z,101857.10
2018-12-30T15:53:19.266Z,101860.83
2018-12-30T15:55:49.022Z,101854.83
2018-12-30T15:58:18.829Z,101854.11
2018-12-30T16:00:48.812Z,101851.48
2018-12-30T16:03:18.673Z,101850.22
2018-12-30T16:05:48.485Z,101850.55
2018-12-30T16:08:19.557Z,101851.06
2018-12-30T16:10:50.569Z,101858.39
2018-12-30T16:13:20.397Z,101855.02
2018-12-30T16:15:51.528Z,101857.37
2018-12-30T16:18:21.428Z,101855.98
2018-12-30T16:20:51.357Z,101855.92
2018-12-30T16:23:22.536Z,101854.11
2018-12-30T16:25:52.201Z,101847.61
2018-12-30T16:28:23.537Z,101845.55
2018-12-30T16:30:53.101Z,101849.37
2018-12-30T16:33:22.737Z,101849.78
2018-12-30T16:35:52.402Z,101850.19
2018-12-30T16:38:22.240Z,101850.02
2018-12-30T16:40:52.018Z,101850.57
2018-12-30T16:43:21.880Z,101850.55
2018-12-30T16:45:53.034Z,101849.34
2018-12-30T16:48:22.944Z,101851.42
2018-12-30T16:50:53.838Z,101856.64
2018-12-30T16:53:24.085Z,101852.82
2018-12-30T16:55:54.079Z,101857.13
2018-12-30T16:58:23.991Z,101850.41
2018-12-30T17:00:53.820Z,101855.02
2018-12-30T17:03:23.667Z,101855.88
2018-12-30T17:05:53.276Z,101856.42
2018-12-30T17:08:22.988Z,101859.48
2018-12-30T17:10:52.802Z,101861.15
2018-12-30T17:13:22.619Z,101858.53
2018-12-30T17:15:52.339Z,101854.91
2018-12-30T17:18:22.381Z,101861.27
2018-12-30T17:20:52.646Z,101860.77
2018-12-30T17:23:22.156Z,101861.36
2018-12-30T17:25:52.433Z,101856.31
2018-12-30T17:28:22.315Z,101859.59
2018-12-30T17:30:52.309Z,101869.06
2018-12-30T17:33:22.112Z,101867.59
2018-12-30T17:35:51.912Z,101875.61
2018-12-30T17:38:23.612Z,101879.62
2018-12-30T17:41:01.334Z,101882.70
2018-12-30T17:43:25.005Z,101879.27
2018-12-30T17:45:55.818Z,101879.05
2018-12-30T17:48:26.431Z,101881.77
2018-12-30T17:50:57.506Z,101888.27
2018-12-30T17:53:27.272Z,101888.25
2018-12-30T17:55:57.311Z,101866.55
2018-12-30T17:58:28.414Z,101893.88
2018-12-30T18:00:58.158Z,101884.81
2018-12-30T18:03:27.794Z,101886.80
2018-12-30T18:05:57.730Z,101890.59
2018-12-30T18:08:27.260Z,101891.09
2018-12-30T18:10:56.794Z,101886.94
2018-12-30T18:13:26.383Z,101887.11
2018-12-30T18:15:55.922Z,101893.12
2018-12-30T18:18:25.753Z,101885.59
2018-12-30T18:20:55.497Z,101893.28
2018-12-30T18:23:25.212Z,101889.45
2018-12-30T18:25:58.629Z,101888.56
2018-12-30T18:28:27.367Z,101885.16
2018-12-30T18:30:56.922Z,101877.33
2018-12-30T18:33:26.495Z,101880.53
2018-12-30T18:35:56.250Z,101882.46
2018-12-30T18:38:26.571Z,101879.94
2018-12-30T18:40:56.229Z,101876.21
2018-12-30T18:43:26.056Z,101873.41
2018-12-30T18:45:56.104Z,101872.83
2018-12-30T18:48:25.851Z,101874.42
2018-12-30T18:50:56.928Z,101872.09
2018-12-30T18:53:26.767Z,101873.36
2018-12-30T18:55:56.705Z,101877.27
2018-12-30T18:58:28.006Z,101873.47
2018-12-30T19:00:57.800Z,101876.41
2018-12-30T19:03:27.496Z,101874.66
2018-12-30T19:05:57.078Z,101880.27
2018-12-30T19:08:26.662Z,101873.70
2018-12-30T19:10:56.473Z,101870.17
2018-12-30T19:13:26.317Z,101870.45
2018-12-30T19:15:56.555Z,101868.18
2018-12-30T19:18:26.480Z,101863.82
2018-12-30T19:20:56.311Z,101869.47
2018-12-30T19:23:26.287Z,101870.21
2018-12-30T19:26:01.035Z,101869.08
2018-12-30T19:28:27.392Z,101868.67
2018-12-30T19:30:58.573Z,101877.17
2018-12-30T19:33:28.274Z,101874.98
2018-12-30T19:35:58.171Z,101867.86
2018-12-30T19:38:29.215Z,101870.47
2018-12-30T19:40:58.904Z,101867.66
2018-12-30T19:43:28.727Z,101869.62
2018-12-30T19:45:58.314Z,101863.09
2018-12-30T19:48:28.991Z,101867.27
2018-12-30T19:50:58.525Z,101863.84
2018-12-30T19:53:28.103Z,101863.26
2018-12-30T19:55:57.711Z,101857.02
2018-12-30T19:58:27.219Z,101863.26
2018-12-30T20:00:58.001Z,101864.79
2018-12-30T20:03:27.554Z,101864.98
2018-12-30T20:05:57.098Z,101861.64
2018-12-30T20:08:27.019Z,101865.65
2018-12-30T20:10:56.754Z,101872.10
2018-12-30T20:13:26.565Z,101865.06
2018-12-30T20:15:57.641Z,101875.11
2018-12-30T20:18:27.459Z,101873.89
2018-12-30T20:20:57.334Z,101875.24
2018-12-30T20:23:27.294Z,101873.80
2018-12-30T20:25:58.375Z,101876.20
2018-12-30T20:28:28.224Z,101881.78
2018-12-30T20:30:58.019Z,101884.98
2018-12-30T20:33:27.984Z,101883.26
2018-12-30T20:35:57.862Z,101882.28
2018-12-30T20:38:27.675Z,101886.00
2018-12-30T20:40:57.588Z,101880.08
2018-12-30T20:43:27.605Z,101887.86
2018-12-30T20:45:57.623Z,101877.70
2018-12-30T20:48:27.485Z,101881.67
2018-12-30T20:50:57.337Z,101879.98
2018-12-30T20:53:27.261Z,101889.93
2018-12-30T20:55:58.451Z,101886.58
2018-12-30T20:58:28.240Z,101885.08
2018-12-30T21:00:58.056Z,101872.93
2018-12-30T21:03:27.912Z,101884.36
2018-12-30T21:05:57.822Z,101885.70
2018-12-30T21:08:27.691Z,101879.72
2018-12-30T21:10:57.504Z,101884.63
2018-12-30T21:13:28.466Z,101888.53
2018-12-30T21:15:58.597Z,101885.82
2018-12-30T21:18:28.496Z,101888.93
2018-12-30T21:20:58.438Z,101884.05
2018-12-30T21:23:28.215Z,101893.55
2018-12-30T21:25:57.912Z,101893.58
2018-12-30T21:28:27.743Z,101896.55
2018-12-30T21:30:57.555Z,101890.59
2018-12-30T21:33:27.534Z,101895.03
2018-12-30T21:35:57.516Z,101894.23
2018-12-30T21:38:27.208Z,101892.67
2018-12-30T21:40:57.003Z,101889.27
2018-12-30T21:43:28.389Z,101895.24
2018-12-30T21:45:58.061Z,101890.71
2018-12-30T21:48:27.777Z,101895.03
2018-12-30T21:50:57.619Z,101885.14
2018-12-30T21:53:27.417Z,101886.86
2018-12-30T21:55:57.237Z,101884.59
2018-12-30T21:58:27.101Z,101883.31
2018-12-30T22:00:56.868Z,101883.63
2018-12-30T22:03:26.570Z,101878.86
2018-12-30T22:05:56.640Z,101873.26
2018-12-30T22:08:26.404Z,101870.23
2018-12-30T22:10:56.216Z,101875.38
2018-12-30T22:13:25.970Z,101872.62
2018-12-30T22:15:55.841Z,101870.00
2018-12-30T22:18:25.777Z,101867.73
2018-12-30T22:20:57.032Z,101867.66
2018-12-30T22:23:26.914Z,101866.88
2018-12-30T22:25:57.053Z,101867.72
2018-12-30T22:28:27.010Z,101865.96
2018-12-30T22:30:56.888Z,101867.61
2018-12-30T22:33:26.918Z,101862.88
2018-12-30T22:35:56.665Z,101858.55
2018-12-30T22:38:26.417Z,101865.33
2018-12-30T22:40:56.463Z,101859.83
2018-12-30T22:43:26.304Z,101858.84
2018-12-30T22:45:56.178Z,101852.41
2018-12-30T22:48:26.148Z,101857.50
2018-12-30T22:50:55.862Z,101856.98
2018-12-30T22:53:25.753Z,101847.56
2018-12-30T22:55:55.583Z,101845.28
2018-12-30T22:58:25.281Z,101842.20
2018-12-30T23:01:00.459Z,101839.64
2018-12-30T23:03:30.307Z,101839.77
2018-12-30T23:06:00.180Z,101841.20
2018-12-30T23:08:30.025Z,101837.66
2018-12-30T23:10:59.867Z,101842.34
2018-12-30T23:13:29.796Z,101841.00
2018-12-30T23:15:59.691Z,101839.20
2018-12-30T23:18:29.493Z,101834.42
2018-12-30T23:20:59.465Z,101833.56
2018-12-30T23:23:29.582Z,101834.05
2018-12-30T23:25:59.337Z,101837.41
2018-12-30T23:28:29.340Z,101832.64
2018-12-30T23:30:59.343Z,101838.64
2018-12-30T23:33:29.091Z,101830.05
2018-12-30T23:35:59.236Z,101838.27
2018-12-30T23:38:29.210Z,101839.70
2018-12-30T23:40:58.936Z,101832.97
2018-12-30T23:43:28.765Z,101840.64
2018-12-30T23:45:58.834Z,101837.28
2018-12-30T23:48:28.541Z,101837.58
2018-12-30T23:50:58.233Z,101842.99
2018-12-30T23:53:27.935Z,101841.35
2018-12-30T23:55:57.880Z,101849.92
2018-12-30T23:58:27.667Z,101844.42
